createdAt,value
2023-01-09T00:00:34.661Z,2.30
2023-01-09T00:01:34.511Z,2.40
2023-01-09T00:02:34.572Z,2.70
2023-01-09T00:03:34.527Z,2.20
2023-01-09T00:04:34.519Z,2.40
2023-01-09T00:05:34.481Z,2.60
2023-01-09T00:06:34.460Z,2.20
2023-01-09T00:07:34.474Z,2.20
2023-01-09T00:08:34.457Z,2.30
2023-01-09T00:09:34.412Z,2.50
2023-01-09T00:10:34.421Z,2.80
2023-01-09T00:11:34.407Z,2.80
2023-01-09T00:12:34.411Z,2.10
2023-01-09T00:13:34.386Z,2.10
2023-01-09T00:14:34.409Z,2.30
2023-01-09T00:15:34.371Z,2.30
2023-01-09T00:16:34.421Z,2.40
2023-01-09T00:17:34.332Z,2.70
2023-01-09T00:18:34.347Z,2.30
2023-01-09T00:19:34.324Z,2.10
2023-01-09T00:20:34.321Z,2.60
2023-01-09T00:21:34.303Z,2.50
2023-01-09T00:22:34.317Z,2.30
2023-01-09T00:23:34.275Z,2.90
2023-01-09T00:24:34.305Z,2.80
2023-01-09T00:25:34.245Z,2.40
2023-01-09T00:26:34.268Z,2.70
2023-01-09T00:27:34.227Z,2.30
2023-01-09T00:28:34.238Z,2.30
2023-01-09T00:29:34.220Z,2.10
2023-01-09T00:30:34.263Z,2.60
2023-01-09T00:31:34.208Z,2.10
2023-01-09T00:32:34.198Z,2.30
2023-01-09T00:33:34.195Z,2.70
2023-01-09T00:34:34.172Z,2.50
2023-01-09T00:35:34.156Z,2.60
2023-01-09T00:36:34.158Z,2.50
2023-01-09T00:37:34.132Z,1.50
2023-01-09T00:38:34.154Z,2.80
2023-01-09T00:39:34.099Z,2.60
2023-01-09T00:40:34.096Z,3.00
2023-01-09T00:41:34.089Z,2.60
2023-01-09T00:42:34.083Z,2.50
2023-01-09T00:43:34.051Z,3.20
2023-01-09T00:44:34.077Z,2.80
2023-01-09T00:45:34.051Z,2.70
2023-01-09T00:46:34.044Z,3.10
2023-01-09T00:47:34.009Z,3.10
2023-01-09T00:48:34.023Z,2.50
2023-01-09T00:49:34.041Z,2.50
2023-01-09T00:50:34.008Z,2.90
2023-01-09T00:51:33.989Z,2.50
2023-01-09T00:52:34.007Z,2.70
2023-01-09T00:53:33.952Z,2.60
2023-01-09T00:54:34.003Z,2.30
2023-01-09T00:55:33.928Z,3.00
2023-01-09T00:56:33.968Z,2.90
2023-01-09T00:57:33.930Z,2.30
2023-01-09T00:58:33.923Z,2.00
2023-01-09T00:59:33.897Z,3.00
2023-01-09T01:00:33.887Z,3.00
2023-01-09T01:01:34.001Z,1.90
2023-01-09T01:02:33.917Z,2.70
2023-01-09T01:03:33.843Z,2.40
2023-01-09T01:04:33.855Z,2.40
2023-01-09T01:05:33.836Z,4.80
2023-01-09T01:06:33.828Z,3.10
2023-01-09T01:07:33.832Z,2.00
2023-01-09T01:08:33.843Z,2.70
2023-01-09T01:09:33.785Z,3.10
2023-01-09T01:10:33.785Z,2.40
2023-01-09T01:11:33.774Z,2.80
2023-01-09T01:12:33.791Z,2.70
2023-01-09T01:13:33.738Z,2.50
2023-01-09T01:14:33.748Z,2.60
2023-01-09T01:15:33.719Z,2.40
2023-01-09T01:16:33.752Z,2.70
2023-01-09T01:17:33.709Z,2.30
2023-01-09T01:18:33.711Z,3.10
2023-01-09T01:19:33.701Z,3.40
2023-01-09T01:20:33.693Z,2.70
2023-01-09T01:21:33.678Z,3.10
2023-01-09T01:22:33.690Z,2.60
2023-01-09T01:23:33.632Z,2.30
2023-01-09T01:24:33.650Z,2.60
2023-01-09T01:25:33.617Z,2.20
2023-01-09T01:26:33.617Z,2.40
2023-01-09T01:27:33.599Z,2.50
2023-01-09T01:28:33.596Z,3.10
2023-01-09T01:29:33.563Z,2.60
2023-01-09T01:30:33.609Z,2.60
2023-01-09T01:31:33.553Z,3.50
2023-01-09T01:32:33.555Z,2.80
2023-01-09T01:33:33.518Z,2.30
2023-01-09T01:34:33.559Z,2.90
2023-01-09T01:35:33.511Z,3.20
2023-01-09T01:36:33.513Z,3.20
2023-01-09T01:37:33.484Z,2.50
2023-01-09T01:38:33.514Z,2.40
2023-01-09T01:39:33.458Z,2.30
2023-01-09T01:40:33.490Z,2.90
2023-01-09T01:41:33.433Z,2.40
2023-01-09T01:42:33.462Z,2.10
2023-01-09T01:43:33.413Z,2.60
2023-01-09T01:44:33.433Z,2.30
2023-01-09T01:45:33.418Z,2.90
2023-01-09T01:46:33.420Z,2.30
2023-01-09T01:47:33.368Z,3.00
2023-01-09T01:48:33.414Z,3.00
2023-01-09T01:49:33.355Z,2.70
2023-01-09T01:50:33.382Z,2.10
2023-01-09T01:51:33.339Z,2.50
2023-01-09T01:52:33.349Z,2.90
2023-01-09T01:53:33.333Z,2.40
2023-01-09T01:54:33.334Z,2.60
2023-01-09T01:55:33.312Z,3.30
2023-01-09T01:56:33.304Z,2.70
2023-01-09T01:57:33.268Z,2.30
2023-01-09T01:58:33.276Z,2.20
2023-01-09T01:59:33.253Z,2.70
2023-01-09T02:00:33.248Z,3.20
2023-01-09T02:01:33.310Z,2.60
2023-01-09T02:02:33.319Z,3.00
2023-01-09T02:03:33.195Z,3.00
2023-01-09T02:04:33.213Z,2.90
2023-01-09T02:05:33.197Z,2.30
2023-01-09T02:06:33.190Z,2.30
2023-01-09T02:07:33.170Z,2.10
2023-01-09T02:08:33.167Z,3.10
2023-01-09T02:09:33.151Z,2.60
2023-01-09T02:10:33.167Z,1.90
2023-01-09T02:11:33.123Z,2.30
2023-01-09T02:12:33.138Z,2.80
2023-01-09T02:13:33.106Z,2.20
2023-01-09T02:14:33.130Z,2.50
2023-01-09T02:15:33.091Z,2.40
2023-01-09T02:16:33.095Z,2.00
2023-01-09T02:17:33.061Z,2.20
2023-01-09T02:18:33.084Z,2.30
2023-01-09T02:19:33.039Z,2.40
2023-01-09T02:20:33.046Z,2.50
2023-01-09T02:21:33.017Z,2.30
2023-01-09T02:22:33.062Z,2.20
2023-01-09T02:23:32.993Z,2.50
2023-01-09T02:24:32.998Z,2.10
2023-01-09T02:25:32.971Z,2.70
2023-01-09T02:26:32.982Z,2.10
2023-01-09T02:27:32.962Z,2.10
2023-01-09T02:28:32.972Z,2.30
2023-01-09T02:29:32.929Z,2.00
2023-01-09T02:30:32.957Z,1.90
2023-01-09T02:31:32.939Z,1.90
2023-01-09T02:32:32.926Z,2.20
2023-01-09T02:33:32.887Z,2.60
2023-01-09T02:34:32.909Z,1.80
2023-01-09T02:35:32.888Z,1.90
2023-01-09T02:36:32.909Z,1.90
2023-01-09T02:37:32.864Z,1.80
2023-01-09T02:38:32.855Z,2.20
2023-01-09T02:39:32.833Z,2.50
2023-01-09T02:40:32.866Z,2.00
2023-01-09T02:41:32.799Z,1.80
2023-01-09T02:42:32.807Z,3.10
2023-01-09T02:43:32.782Z,2.40
2023-01-09T02:44:32.781Z,2.20
2023-01-09T02:45:32.809Z,2.00
2023-01-09T02:46:32.787Z,1.60
2023-01-09T02:47:32.734Z,2.00
2023-01-09T02:48:32.766Z,2.40
2023-01-09T02:49:32.738Z,2.10
2023-01-09T02:50:32.730Z,2.60
2023-01-09T02:51:32.695Z,1.70
2023-01-09T02:52:32.719Z,1.90
2023-01-09T02:53:32.680Z,2.00
2023-01-09T02:54:32.678Z,2.00
2023-01-09T02:55:32.672Z,1.50
2023-01-09T02:56:32.666Z,1.80
2023-01-09T02:57:32.630Z,2.20
2023-01-09T02:58:32.638Z,2.10
2023-01-09T02:59:32.635Z,2.10
2023-01-09T03:00:32.634Z,2.10
2023-01-09T03:01:32.765Z,1.90
2023-01-09T03:02:32.616Z,1.60
2023-01-09T03:03:32.573Z,2.30
2023-01-09T03:04:32.572Z,2.00
2023-01-09T03:05:32.545Z,1.60
2023-01-09T03:06:32.570Z,2.80
2023-01-09T03:07:32.522Z,1.50
2023-01-09T03:08:32.607Z,1.50
2023-01-09T03:09:32.505Z,1.50
2023-01-09T03:10:32.529Z,1.70
2023-01-09T03:11:32.492Z,1.70
2023-01-09T03:12:32.498Z,2.30
2023-01-09T03:13:32.476Z,1.50
2023-01-09T03:14:32.499Z,2.50
2023-01-09T03:15:32.463Z,2.20
2023-01-09T03:16:32.500Z,2.00
2023-01-09T03:17:32.417Z,1.90
2023-01-09T03:18:32.481Z,1.90
2023-01-09T03:19:32.393Z,2.20
2023-01-09T03:20:32.445Z,2.00
2023-01-09T03:21:32.382Z,2.10
2023-01-09T03:22:32.380Z,1.70
2023-01-09T03:23:32.361Z,1.70
2023-01-09T03:24:32.371Z,2.00
2023-01-09T03:25:32.339Z,1.90
2023-01-09T03:26:32.348Z,1.70
2023-01-09T03:27:32.330Z,1.40
2023-01-09T03:28:32.317Z,2.20
2023-01-09T03:29:32.290Z,1.80
2023-01-09T03:30:32.320Z,2.00
2023-01-09T03:31:32.325Z,1.70
2023-01-09T03:32:32.290Z,2.00
2023-01-09T03:33:32.258Z,1.70
2023-01-09T03:34:32.260Z,1.50
2023-01-09T03:35:32.239Z,1.40
2023-01-09T03:36:32.239Z,1.90
2023-01-09T03:37:32.212Z,2.30
2023-01-09T03:38:32.227Z,1.50
2023-01-09T03:39:32.186Z,1.80
2023-01-09T03:40:32.187Z,1.80
2023-01-09T03:41:32.161Z,2.00
2023-01-09T03:42:32.192Z,2.30
2023-01-09T03:43:32.155Z,1.80
2023-01-09T03:44:32.174Z,1.90
2023-01-09T03:45:32.134Z,2.10
2023-01-09T03:46:32.122Z,1.80
2023-01-09T03:47:32.118Z,1.50
2023-01-09T03:48:32.113Z,1.60
2023-01-09T03:49:32.074Z,1.60
2023-01-09T03:50:32.081Z,1.60
2023-01-09T03:51:32.086Z,2.80
2023-01-09T03:52:32.053Z,1.90
2023-01-09T03:53:32.060Z,1.90
2023-01-09T03:54:32.030Z,1.90
2023-01-09T03:55:32.030Z,2.00
2023-01-09T03:56:32.012Z,2.20
2023-01-09T03:57:32.025Z,1.80
2023-01-09T03:58:31.993Z,1.50
2023-01-09T03:59:31.997Z,2.30
2023-01-09T04:00:31.989Z,2.10
2023-01-09T04:01:32.171Z,1.80
2023-01-09T04:02:31.937Z,2.50
2023-01-09T04:03:32.027Z,2.10
2023-01-09T04:04:31.914Z,2.20
2023-01-09T04:05:31.934Z,2.00
2023-01-09T04:06:31.921Z,1.80
2023-01-09T04:07:31.901Z,1.80
2023-01-09T04:08:31.871Z,2.70
2023-01-09T04:09:31.876Z,2.20
2023-01-09T04:10:31.862Z,1.50
2023-01-09T04:11:31.853Z,2.30
2023-01-09T04:12:31.853Z,2.10
2023-01-09T04:13:31.843Z,2.50
2023-01-09T04:14:31.822Z,2.30
2023-01-09T04:15:31.813Z,2.00
2023-01-09T04:16:31.813Z,1.80
2023-01-09T04:17:31.815Z,2.30
2023-01-09T04:18:31.807Z,2.70
2023-01-09T04:19:31.789Z,2.60
2023-01-09T04:20:31.749Z,2.20
2023-01-09T04:21:31.785Z,2.30
2023-01-09T04:22:31.746Z,3.00
2023-01-09T04:23:31.755Z,2.30
2023-01-09T04:24:31.704Z,2.60
2023-01-09T04:25:31.713Z,2.20
2023-01-09T04:26:31.696Z,2.70
2023-01-09T04:27:31.740Z,2.20
2023-01-09T04:28:31.665Z,2.00
2023-01-09T04:29:31.669Z,2.20
2023-01-09T04:30:31.643Z,2.10
2023-01-09T04:31:31.687Z,2.30
2023-01-09T04:32:31.638Z,2.10
2023-01-09T04:33:31.655Z,2.40
2023-01-09T04:34:31.598Z,2.60
2023-01-09T04:35:31.607Z,2.30
2023-01-09T04:36:31.590Z,2.40
2023-01-09T04:37:31.605Z,2.20
2023-01-09T04:38:31.565Z,2.50
2023-01-09T04:39:31.563Z,2.80
2023-01-09T04:40:31.544Z,2.10
2023-01-09T04:41:31.558Z,2.30
2023-01-09T04:42:31.532Z,2.10
2023-01-09T04:43:31.519Z,2.50
2023-01-09T04:44:31.510Z,2.30
2023-01-09T04:45:31.607Z,2.40
2023-01-09T04:46:31.481Z,2.20
2023-01-09T04:47:31.497Z,2.50
2023-01-09T04:48:31.452Z,2.70
2023-01-09T04:49:31.463Z,2.40
2023-01-09T04:50:31.612Z,2.80
2023-01-09T04:51:31.439Z,2.70
2023-01-09T04:52:31.406Z,2.50
2023-01-09T04:53:31.418Z,2.80
2023-01-09T04:54:31.412Z,3.30
2023-01-09T04:55:31.402Z,2.90
2023-01-09T04:56:31.367Z,3.00
2023-01-09T04:57:31.362Z,2.20
2023-01-09T04:58:31.344Z,2.30
2023-01-09T04:59:31.365Z,2.80
2023-01-09T05:00:31.348Z,2.50
2023-01-09T05:01:31.449Z,2.40
2023-01-09T05:02:31.300Z,3.20
2023-01-09T05:03:31.318Z,2.80
2023-01-09T05:04:31.312Z,3.30
2023-01-09T05:05:31.311Z,2.80
2023-01-09T05:06:31.263Z,2.50
2023-01-09T05:07:31.287Z,2.70
2023-01-09T05:08:31.237Z,2.50
2023-01-09T05:09:31.251Z,2.90
2023-01-09T05:10:31.263Z,3.30
2023-01-09T05:11:31.224Z,2.60
2023-01-09T05:12:31.199Z,3.00
2023-01-09T05:13:31.217Z,2.10
2023-01-09T05:14:31.169Z,3.50
2023-01-09T05:15:31.191Z,2.80
2023-01-09T05:16:31.220Z,3.90
2023-01-09T05:17:31.188Z,3.10
2023-01-09T05:18:31.153Z,3.30
2023-01-09T05:19:31.139Z,2.40
2023-01-09T05:20:31.113Z,2.60
2023-01-09T05:21:31.220Z,2.80
2023-01-09T05:22:31.136Z,3.10
2023-01-09T05:23:31.109Z,3.20
2023-01-09T05:24:31.072Z,3.10
2023-01-09T05:25:31.078Z,2.50
2023-01-09T05:26:31.056Z,2.60
2023-01-09T05:27:31.071Z,1.90
2023-01-09T05:28:31.019Z,2.50
2023-01-09T05:29:31.027Z,2.30
2023-01-09T05:30:30.999Z,1.60
2023-01-09T05:31:31.061Z,2.30
2023-01-09T05:32:30.979Z,2.70
2023-01-09T05:33:31.000Z,2.50
2023-01-09T05:34:30.968Z,2.30
2023-01-09T05:35:30.995Z,2.10
2023-01-09T05:36:30.935Z,3.20
2023-01-09T05:37:30.947Z,3.00
2023-01-09T05:38:30.908Z,2.80
2023-01-09T05:39:30.934Z,2.70
2023-01-09T05:40:39.505Z,2.40
2023-01-09T05:41:30.900Z,2.30
2023-01-09T05:42:30.909Z,2.90
2023-01-09T05:43:30.867Z,3.10
2023-01-09T05:44:30.846Z,2.60
2023-01-09T05:45:30.925Z,3.80
2023-01-09T05:46:30.824Z,2.30
2023-01-09T05:47:30.861Z,3.70
2023-01-09T05:48:30.812Z,3.20
2023-01-09T05:49:30.833Z,2.80
2023-01-09T05:50:30.780Z,3.10
2023-01-09T05:51:30.795Z,2.10
2023-01-09T05:52:30.767Z,2.90
2023-01-09T05:53:30.775Z,3.20
2023-01-09T05:54:30.739Z,2.60
2023-01-09T05:55:30.772Z,2.60
2023-01-09T05:56:30.723Z,2.40
2023-01-09T05:57:30.718Z,1.70
2023-01-09T05:58:30.718Z,2.80
2023-01-09T05:59:30.709Z,2.60
2023-01-09T06:00:30.675Z,3.30
2023-01-09T06:01:30.750Z,2.60
2023-01-09T06:02:30.804Z,3.10
2023-01-09T06:03:30.674Z,2.10
2023-01-09T06:04:30.640Z,2.90
2023-01-09T06:05:30.667Z,2.80
2023-01-09T06:06:30.608Z,2.40
2023-01-09T06:07:30.625Z,2.60
2023-01-09T06:08:30.597Z,2.20
2023-01-09T06:09:30.601Z,2.30
2023-01-09T06:10:30.563Z,2.70
2023-01-09T06:11:30.609Z,1.90
2023-01-09T06:12:30.542Z,1.40
2023-01-09T06:13:30.594Z,1.10
2023-01-09T06:14:30.541Z,1.60
2023-01-09T06:15:30.539Z,1.40
2023-01-09T06:16:30.498Z,0.90
2023-01-09T06:17:30.519Z,1.10
2023-01-09T06:18:30.490Z,1.40
2023-01-09T06:19:30.497Z,1.20
2023-01-09T06:20:30.461Z,1.20
2023-01-09T06:21:30.466Z,0.70
2023-01-09T06:22:30.438Z,0.30
2023-01-09T06:23:30.461Z,0.40
2023-01-09T06:24:30.437Z,0.30
2023-01-09T06:25:30.423Z,0.50
2023-01-09T06:26:30.391Z,0.70
2023-01-09T06:27:30.402Z,0.40
2023-01-09T06:28:30.374Z,0.50
2023-01-09T06:29:30.390Z,0.40
2023-01-09T06:30:30.376Z,0.20
2023-01-09T06:31:30.472Z,0.30
2023-01-09T06:32:30.340Z,0.30
2023-01-09T06:33:30.329Z,0.40
2023-01-09T06:34:30.310Z,0.20
2023-01-09T06:35:30.333Z,0.30
2023-01-09T06:36:30.304Z,0.30
2023-01-09T06:37:30.295Z,0.50
2023-01-09T06:38:30.272Z,0.30
2023-01-09T06:39:30.289Z,0.30
2023-01-09T06:40:30.276Z,0.40
2023-01-09T06:41:30.281Z,0.40
2023-01-09T06:42:30.228Z,0.30
2023-01-09T06:43:30.253Z,0.50
2023-01-09T06:44:30.205Z,0.20
2023-01-09T06:45:30.172Z,0.60
2023-01-09T06:46:30.264Z,0.30
2023-01-09T06:47:30.172Z,0.50
2023-01-09T06:48:30.113Z,0.20
2023-01-09T06:49:30.181Z,0.40
2023-01-09T06:50:30.137Z,0.30
2023-01-09T06:51:30.104Z,0.20
2023-01-09T06:52:30.069Z,0.40
2023-01-09T06:53:30.084Z,0.20
2023-01-09T06:54:30.096Z,0.30
2023-01-09T06:55:30.133Z,0.30
2023-01-09T06:56:30.031Z,0.50
2023-01-09T06:57:30.029Z,0.30
2023-01-09T06:58:29.999Z,0.30
2023-01-09T06:59:30.030Z,0.30
2023-01-09T07:00:30.016Z,0.30
2023-01-09T07:01:30.060Z,0.40
2023-01-09T07:02:29.961Z,0.20
2023-01-09T07:03:31.499Z,0.20
2023-01-09T07:04:29.958Z,0.30
2023-01-09T07:05:29.939Z,0.30
2023-01-09T07:06:29.948Z,0.50
2023-01-09T07:07:29.912Z,0.50
2023-01-09T07:08:29.904Z,0.40
2023-01-09T07:09:29.904Z,0.40
2023-01-09T07:10:29.938Z,0.30
2023-01-09T07:11:29.884Z,0.40
2023-01-09T07:12:29.859Z,0.30
2023-01-09T07:13:29.870Z,0.40
2023-01-09T07:14:29.826Z,0.30
2023-01-09T07:15:29.845Z,0.40
2023-01-09T07:16:29.803Z,0.30
2023-01-09T07:17:29.834Z,0.40
2023-01-09T07:18:29.786Z,0.30
2023-01-09T07:19:29.800Z,0.40
2023-01-09T07:20:29.802Z,0.40
2023-01-09T07:21:32.600Z,0.30
2023-01-09T07:22:29.735Z,0.40
2023-01-09T07:23:29.743Z,0.50
2023-01-09T07:24:29.733Z,0.30
2023-01-09T07:25:29.752Z,0.40
2023-01-09T07:26:29.714Z,0.30
2023-01-09T07:27:29.706Z,0.40
2023-01-09T07:28:29.673Z,0.60
2023-01-09T07:29:29.710Z,0.50
2023-01-09T07:30:29.736Z,0.30
2023-01-09T07:31:29.698Z,0.30
2023-01-09T07:32:29.646Z,0.30
2023-01-09T07:33:29.657Z,0.30
2023-01-09T07:34:29.617Z,0.30
2023-01-09T07:35:29.627Z,0.20
2023-01-09T07:36:29.604Z,0.30
2023-01-09T07:37:29.620Z,0.40
2023-01-09T07:38:29.573Z,0.50
2023-01-09T07:39:29.590Z,0.40
2023-01-09T07:40:29.649Z,0.30
2023-01-09T07:41:29.587Z,0.30
2023-01-09T07:42:29.527Z,0.30
2023-01-09T07:43:29.550Z,0.40
2023-01-09T07:44:29.518Z,0.50
2023-01-09T07:45:29.515Z,0.20
2023-01-09T07:46:29.526Z,0.40
2023-01-09T07:47:29.504Z,0.20
2023-01-09T07:48:29.463Z,0.30
2023-01-09T07:49:29.477Z,0.30
2023-01-09T07:50:29.450Z,0.70
2023-01-09T07:51:29.472Z,0.30
2023-01-09T07:52:29.425Z,0.30
2023-01-09T07:53:29.448Z,0.60
2023-01-09T07:54:29.396Z,0.50
2023-01-09T07:55:29.429Z,0.50
2023-01-09T07:56:29.375Z,0.40
2023-01-09T07:57:29.377Z,1.00
2023-01-09T07:58:29.351Z,1.00
2023-01-09T07:59:29.356Z,1.00
2023-01-09T08:00:30.009Z,0.80
2023-01-09T08:01:29.437Z,0.80
2023-01-09T08:02:29.374Z,0.70
2023-01-09T08:03:29.321Z,0.50
2023-01-09T08:04:29.294Z,0.90
2023-01-09T08:05:29.333Z,0.40
2023-01-09T08:06:29.282Z,0.30
2023-01-09T08:07:29.260Z,0.40
2023-01-09T08:08:29.293Z,0.30
2023-01-09T08:09:29.237Z,0.40
2023-01-09T08:10:29.257Z,0.30
2023-01-09T08:11:29.240Z,0.70
2023-01-09T08:12:29.240Z,0.60
2023-01-09T08:13:29.200Z,0.70
2023-01-09T08:14:29.208Z,0.60
2023-01-09T08:15:29.175Z,0.40
2023-01-09T08:16:29.175Z,0.60
2023-01-09T08:17:29.156Z,0.40
2023-01-09T08:18:29.174Z,0.70
2023-01-09T08:19:29.129Z,0.40
2023-01-09T08:20:29.136Z,0.30
2023-01-09T08:21:29.110Z,0.30
2023-01-09T08:22:29.137Z,0.90
2023-01-09T08:23:29.090Z,0.40
2023-01-09T08:24:29.087Z,0.40
2023-01-09T08:25:29.083Z,0.70
2023-01-09T08:26:29.193Z,0.50
2023-01-09T08:27:29.045Z,0.30
2023-01-09T08:28:29.204Z,0.90
2023-01-09T08:29:29.031Z,0.40
2023-01-09T08:30:29.032Z,0.60
2023-01-09T08:31:29.055Z,0.60
2023-01-09T08:32:28.999Z,0.30
2023-01-09T08:33:28.980Z,0.40
2023-01-09T08:34:29.089Z,0.40
2023-01-09T08:35:28.969Z,0.50
2023-01-09T08:36:29.049Z,0.40
2023-01-09T08:37:28.940Z,0.60
2023-01-09T08:38:27.939Z,0.50
2023-01-09T08:39:28.927Z,0.40
2023-01-09T08:40:28.933Z,0.60
2023-01-09T08:41:28.905Z,0.30
2023-01-09T08:42:28.906Z,0.40
2023-01-09T08:43:28.881Z,0.40
2023-01-09T08:44:28.896Z,0.30
2023-01-09T08:45:28.859Z,0.70
2023-01-09T08:46:28.965Z,0.40
2023-01-09T08:47:28.978Z,0.40
2023-01-09T08:48:28.856Z,0.50
2023-01-09T08:49:28.804Z,0.50
2023-01-09T08:50:28.841Z,0.20
2023-01-09T08:51:28.784Z,0.90
2023-01-09T08:52:28.787Z,0.40
2023-01-09T08:53:28.767Z,0.40
2023-01-09T08:54:30.466Z,0.30
2023-01-09T08:55:28.759Z,0.50
2023-01-09T08:56:28.746Z,0.50
2023-01-09T08:57:28.736Z,0.50
2023-01-09T08:58:28.724Z,0.30
2023-01-09T08:59:28.700Z,0.60
2023-01-09T09:00:28.719Z,0.50
2023-01-09T09:01:28.725Z,0.50
2023-01-09T09:02:28.717Z,0.30
2023-01-09T09:03:28.654Z,0.30
2023-01-09T09:04:28.679Z,0.30
2023-01-09T09:05:28.631Z,0.50
2023-01-09T09:06:28.647Z,0.30
2023-01-09T09:07:28.640Z,0.30
2023-01-09T09:08:28.624Z,0.30
2023-01-09T09:09:28.594Z,0.50
2023-01-09T09:10:28.609Z,0.70
2023-01-09T09:11:28.589Z,0.30
2023-01-09T09:12:28.568Z,0.30
2023-01-09T09:13:28.552Z,0.60
2023-01-09T09:14:28.559Z,0.40
2023-01-09T09:15:28.524Z,0.60
2023-01-09T09:16:28.551Z,0.30
2023-01-09T09:17:28.521Z,0.40
2023-01-09T09:18:28.581Z,0.30
2023-01-09T09:19:28.485Z,0.60
2023-01-09T09:20:28.501Z,0.40
2023-01-09T09:21:28.468Z,0.40
2023-01-09T09:22:28.480Z,0.40
2023-01-09T09:23:28.458Z,0.30
2023-01-09T09:24:28.458Z,0.70
2023-01-09T09:25:28.431Z,0.50
2023-01-09T09:26:28.428Z,0.60
2023-01-09T09:27:28.407Z,0.40
2023-01-09T09:28:28.425Z,0.40
2023-01-09T09:29:28.399Z,0.50
2023-01-09T09:30:28.397Z,0.30
2023-01-09T09:31:28.404Z,0.70
2023-01-09T09:32:28.377Z,0.20
2023-01-09T09:33:28.343Z,0.40
2023-01-09T09:34:28.337Z,0.20
2023-01-09T09:35:28.311Z,0.50
2023-01-09T09:36:28.315Z,0.60
2023-01-09T09:37:28.294Z,0.40
2023-01-09T09:38:28.306Z,0.30
2023-01-09T09:39:28.275Z,0.40
2023-01-09T09:40:28.287Z,0.40
2023-01-09T09:41:28.244Z,0.30
2023-01-09T09:42:28.269Z,0.40
2023-01-09T09:43:28.229Z,0.20
2023-01-09T09:44:28.313Z,0.40
2023-01-09T09:45:28.202Z,0.30
2023-01-09T09:46:28.239Z,0.40
2023-01-09T09:47:28.207Z,0.40
2023-01-09T09:48:28.188Z,0.30
2023-01-09T09:49:28.181Z,0.50
2023-01-09T09:50:28.184Z,0.40
2023-01-09T09:51:28.138Z,0.30
2023-01-09T09:52:28.141Z,0.40
2023-01-09T09:53:28.114Z,0.50
2023-01-09T09:54:28.138Z,1.00
2023-01-09T09:55:28.102Z,0.40
2023-01-09T09:56:28.115Z,0.40
2023-01-09T09:57:28.078Z,0.20
2023-01-09T09:58:28.099Z,0.40
2023-01-09T09:59:28.050Z,0.40
2023-01-09T10:00:28.073Z,0.40
2023-01-09T10:01:28.047Z,0.40
2023-01-09T10:02:28.067Z,0.30
2023-01-09T10:03:33.943Z,0.40
2023-01-09T10:04:28.033Z,0.20
2023-01-09T10:05:27.996Z,0.70
2023-01-09T10:06:28.004Z,0.40
2023-01-09T10:07:27.987Z,0.20
2023-01-09T10:08:27.980Z,0.40
2023-01-09T10:09:27.951Z,0.20
2023-01-09T10:10:27.950Z,0.20
2023-01-09T10:11:27.953Z,0.40
2023-01-09T10:12:27.943Z,0.40
2023-01-09T10:13:27.911Z,0.30
2023-01-09T10:14:27.904Z,0.40
2023-01-09T10:15:27.893Z,0.30
2023-01-09T10:16:27.914Z,0.50
2023-01-09T10:17:27.866Z,0.30
2023-01-09T10:18:27.918Z,0.30
2023-01-09T10:19:27.836Z,0.50
2023-01-09T10:20:27.907Z,0.40
2023-01-09T10:21:27.836Z,0.40
2023-01-09T10:22:27.830Z,0.60
2023-01-09T10:23:27.902Z,0.60
2023-01-09T10:24:27.813Z,0.30
2023-01-09T10:25:27.807Z,0.30
2023-01-09T10:26:27.778Z,0.30
2023-01-09T10:27:27.768Z,0.20
2023-01-09T10:28:27.770Z,0.30
2023-01-09T10:29:27.732Z,0.20
2023-01-09T10:30:27.742Z,0.40
2023-01-09T10:31:27.771Z,0.30
2023-01-09T10:32:27.724Z,0.40
2023-01-09T10:33:27.704Z,0.20
2023-01-09T10:34:27.719Z,0.20
2023-01-09T10:35:36.108Z,0.30
2023-01-09T10:36:27.687Z,0.30
2023-01-09T10:37:27.648Z,0.30
2023-01-09T10:38:27.664Z,0.50
2023-01-09T10:39:27.635Z,0.30
2023-01-09T10:40:27.640Z,0.30
2023-01-09T10:41:27.599Z,0.70
2023-01-09T10:42:27.613Z,0.70
2023-01-09T10:43:27.589Z,0.20
2023-01-09T10:44:27.611Z,0.30
2023-01-09T10:45:27.557Z,0.30
2023-01-09T10:46:27.605Z,0.40
2023-01-09T10:47:27.532Z,0.50
2023-01-09T10:48:27.558Z,0.50
2023-01-09T10:49:27.513Z,0.30
2023-01-09T10:50:27.530Z,0.30
2023-01-09T10:51:27.492Z,0.50
2023-01-09T10:52:27.509Z,0.30
2023-01-09T10:53:27.505Z,0.40
2023-01-09T10:54:27.489Z,0.20
2023-01-09T10:55:27.451Z,0.60
2023-01-09T10:56:27.469Z,0.30
2023-01-09T10:57:27.435Z,0.40
2023-01-09T10:58:27.457Z,0.60
2023-01-09T10:59:27.419Z,0.80
2023-01-09T11:00:27.419Z,0.50
2023-01-09T11:01:27.388Z,0.30
2023-01-09T11:02:27.429Z,0.40
2023-01-09T11:03:27.447Z,0.40
2023-01-09T11:04:27.387Z,0.40
2023-01-09T11:05:28.082Z,0.60
2023-01-09T11:06:27.363Z,0.70
2023-01-09T11:07:27.320Z,0.40
2023-01-09T11:08:27.327Z,0.30
2023-01-09T11:09:27.299Z,0.30
2023-01-09T11:10:27.311Z,0.30
2023-01-09T11:11:27.277Z,0.30
2023-01-09T11:12:27.313Z,0.30
2023-01-09T11:13:27.254Z,0.20
2023-01-09T11:14:27.262Z,0.30
2023-01-09T11:15:27.244Z,0.40
2023-01-09T11:16:27.273Z,0.20
2023-01-09T11:17:27.221Z,0.20
2023-01-09T11:18:27.210Z,0.50
2023-01-09T11:19:27.205Z,0.40
2023-01-09T11:20:27.206Z,0.40
2023-01-09T11:21:27.181Z,0.30
2023-01-09T11:22:27.169Z,0.30
2023-01-09T11:23:27.151Z,0.40
2023-01-09T11:24:27.150Z,0.60
2023-01-09T11:25:27.123Z,0.30
2023-01-09T11:26:27.160Z,0.50
2023-01-09T11:27:27.139Z,0.30
2023-01-09T11:28:27.106Z,0.20
2023-01-09T11:29:27.079Z,0.40
2023-01-09T11:30:27.115Z,0.50
2023-01-09T11:31:27.084Z,0.30
2023-01-09T11:32:27.075Z,0.30
2023-01-09T11:33:27.037Z,0.40
2023-01-09T11:34:27.049Z,0.40
2023-01-09T11:35:27.014Z,0.30
2023-01-09T11:36:27.044Z,0.30
2023-01-09T11:37:26.994Z,0.20
2023-01-09T11:38:27.014Z,0.30
2023-01-09T11:39:26.978Z,0.30
2023-01-09T11:40:26.997Z,0.90
2023-01-09T11:41:26.954Z,0.30
2023-01-09T11:42:26.964Z,0.10
2023-01-09T11:43:26.959Z,0.30
2023-01-09T11:44:26.945Z,0.30
2023-01-09T11:45:26.912Z,0.50
2023-01-09T11:46:26.941Z,0.30
2023-01-09T11:47:26.899Z,0.20
2023-01-09T11:48:26.900Z,0.70
2023-01-09T11:49:26.872Z,0.40
2023-01-09T11:50:26.870Z,0.30
2023-01-09T11:51:26.852Z,0.30
2023-01-09T11:52:26.863Z,0.40
2023-01-09T11:53:26.834Z,0.40
2023-01-09T11:54:26.845Z,0.60
2023-01-09T11:55:34.743Z,0.60
2023-01-09T11:56:26.819Z,0.40
2023-01-09T11:57:26.780Z,0.60
2023-01-09T11:58:26.919Z,0.30
2023-01-09T11:59:26.754Z,0.90
2023-01-09T12:00:26.777Z,0.20
2023-01-09T12:01:26.735Z,0.30
2023-01-09T12:02:26.747Z,0.50
2023-01-09T12:03:26.815Z,0.50
2023-01-09T12:04:26.728Z,0.30
2023-01-09T12:05:26.698Z,0.40
2023-01-09T12:06:26.705Z,0.40
2023-01-09T12:07:26.674Z,0.50
2023-01-09T12:08:26.691Z,0.30
2023-01-09T12:09:26.668Z,0.40
2023-01-09T12:10:26.659Z,0.40
2023-01-09T12:11:26.624Z,0.40
2023-01-09T12:12:26.648Z,0.40
2023-01-09T12:13:26.609Z,0.40
2023-01-09T12:14:26.623Z,0.40
2023-01-09T12:15:26.595Z,0.30
2023-01-09T12:16:26.649Z,0.40
2023-01-09T12:17:26.563Z,0.40
2023-01-09T12:18:26.566Z,0.30
2023-01-09T12:19:26.543Z,0.50
2023-01-09T12:20:26.543Z,0.40
2023-01-09T12:21:26.534Z,0.60
2023-01-09T12:22:26.516Z,0.30
2023-01-09T12:23:26.526Z,0.60
2023-01-09T12:24:26.484Z,0.20
2023-01-09T12:25:26.500Z,0.30
2023-01-09T12:26:26.479Z,0.30
2023-01-09T12:27:26.484Z,0.50
2023-01-09T12:28:26.442Z,0.40
2023-01-09T12:29:26.449Z,0.60
2023-01-09T12:30:26.451Z,0.50
2023-01-09T12:31:26.549Z,0.80
2023-01-09T12:32:26.413Z,0.50
2023-01-09T12:33:26.406Z,0.40
2023-01-09T12:34:26.380Z,0.40
2023-01-09T12:35:26.398Z,0.40
2023-01-09T12:36:26.369Z,0.40
2023-01-09T12:37:26.377Z,0.50
2023-01-09T12:38:26.341Z,0.20
2023-01-09T12:39:26.345Z,0.40
2023-01-09T12:40:26.315Z,0.50
2023-01-09T12:41:26.324Z,0.30
2023-01-09T12:42:26.319Z,0.40
2023-01-09T12:43:26.310Z,0.40
2023-01-09T12:44:35.098Z,0.60
2023-01-09T12:45:26.327Z,0.40
2023-01-09T12:46:26.250Z,0.40
2023-01-09T12:47:26.294Z,0.30
2023-01-09T12:48:26.228Z,0.70
2023-01-09T12:49:26.246Z,0.60
2023-01-09T12:50:26.215Z,0.70
2023-01-09T12:51:26.209Z,0.50
2023-01-09T12:52:26.199Z,0.40
2023-01-09T12:53:26.217Z,0.60
2023-01-09T12:54:26.173Z,0.40
2023-01-09T12:55:26.183Z,0.60
2023-01-09T12:56:26.142Z,0.70
2023-01-09T12:57:26.169Z,0.40
2023-01-09T12:58:26.150Z,0.50
2023-01-09T12:59:26.123Z,0.60
2023-01-09T13:00:26.101Z,0.70
2023-01-09T13:01:26.174Z,0.50
2023-01-09T13:02:26.093Z,0.70
2023-01-09T13:03:26.113Z,0.40
2023-01-09T13:04:26.063Z,0.50
2023-01-09T13:05:26.073Z,0.80
2023-01-09T13:06:26.033Z,0.70
2023-01-09T13:07:26.058Z,1.10
2023-01-09T13:08:26.017Z,0.90
2023-01-09T13:09:26.040Z,0.60
2023-01-09T13:10:26.003Z,1.00
2023-01-09T13:11:26.037Z,0.40
2023-01-09T13:12:25.969Z,0.60
2023-01-09T13:13:26.003Z,0.50
2023-01-09T13:14:25.958Z,1.10
2023-01-09T13:15:25.983Z,0.30
2023-01-09T13:16:25.953Z,0.60
2023-01-09T13:17:25.931Z,0.40
2023-01-09T13:18:25.917Z,0.30